Messwerte Parkersburg

Temperatur

Temperatur
°C
1603328400 21.00 21.00 18
1603332000 22.00 22.00 17
1603335600 23.00 23.00 16
1603339200 0.00 0.00 16
1603342800 1.00 1.00 14
1603346400 2.00 2.00 14
1603350000 3.00 3.00 13
1603353600 4.00 4.00 12
1603357200 5.00 5.00 12
1603360800 6.00 6.00 11
1603364400 7.00 7.00 11
1603368000 8.00 8.00
1603371600 9.00 9.00 12
1603375200 10.00 10.00 15
1603378800 11.00 11.00 21
1603382400 12.00 12.00 23
1603386000 13.00 13.00 26
1603389600 14.00 14.00 27
1603393200 15.00 15.00 27
1603396800 16.00 16.00 27
1603400400 17.00 17.00 27
1603404000 18.00 18.00 26
1603407600 19.00 19.00 24
1603411200 20.00 20.00 20

Aktuellste Messwerte

Wettercharakter
Wetter: klar
Temperatur
18 °C
Feuchtigkeit
75 %
Wind
0 km/h, -
Luftdruck
1021 hPa
Messzeit: 22. Oktober 2020, 21.00Datenquelle: METAR

Weitere Messstationen in der Nähe

Messstation Temperatur Entfernung
Zanesville 19 °C 69 km
Point Pleasant 16.0 °C 75 km
Clarksburg 17 °C 104 km
Buckhannon 18.0 °C 108 km
Charleston 19 °C 110 km
Lancaster 14 °C 114 km
Wheeling 21 °C 114 km

Wind

Windrichtung Böen Mittelwind
° km/h km/h
1603328400 21.00 20.00 - 21.00 150° 5
1603332000 22.00 21.00 - 22.00 0
1603335600 23.00 22.00 - 23.00 0
1603339200 0.00 23.00 - 0.00 0
1603342800 1.00 0.00 - 1.00 120° 5
1603346400 2.00 1.00 - 2.00 0
1603350000 3.00 2.00 - 3.00 0
1603353600 4.00 3.00 - 4.00 0
1603357200 5.00 4.00 - 5.00 0
1603360800 6.00 5.00 - 6.00 0
1603364400 7.00 6.00 - 7.00 0
1603368000 8.00 7.00 - 8.00
1603371600 9.00 8.00 - 9.00 0
1603375200 10.00 9.00 - 10.00 0
1603378800 11.00 10.00 - 11.00 180° 5
1603382400 12.00 11.00 - 12.00 5
1603386000 13.00 12.00 - 13.00 230° 5
1603389600 14.00 13.00 - 14.00 270° 5
1603393200 15.00 14.00 - 15.00 170° 10
1603396800 16.00 15.00 - 16.00
1603400400 17.00 16.00 - 17.00 170° 10
1603404000 18.00 17.00 - 18.00 200° 10
1603407600 19.00 18.00 - 19.00 0
1603411200 20.00 19.00 - 20.00 0

Ihre Wetterstation

Fehlt Ihre Wetterstation auf unserem Portal?

Schreiben Sie an network@meteonews.ch

Klima

Wann ist es am wärmsten? Wann regnet es am wenigsten? Unsere Klimadaten geben Auskunft.